sensor_id;sensor_type;location;lat;lon;timestamp;P1;durP1;ratioP1;P2;durP2;ratioP2
62338;SDS011;48368;53.406;6.214;2023-04-24T00:01:43;14.10;;;8.27;;
62338;SDS011;48368;53.406;6.214;2023-04-24T00:04:08;11.90;;;7.80;;
62338;SDS011;48368;53.406;6.214;2023-04-24T00:06:36;13.45;;;8.35;;
62338;SDS011;48368;53.406;6.214;2023-04-24T00:09:02;10.93;;;8.13;;
62338;SDS011;48368;53.406;6.214;2023-04-24T00:11:29;12.38;;;7.57;;
62338;SDS011;48368;53.406;6.214;2023-04-24T00:13:55;11.68;;;7.63;;
62338;SDS011;48368;53.406;6.214;2023-04-24T00:16:22;12.00;;;7.47;;
62338;SDS011;48368;53.406;6.214;2023-04-24T00:18:48;13.93;;;7.80;;
62338;SDS011;48368;53.406;6.214;2023-04-24T00:21:14;12.23;;;7.93;;
62338;SDS011;48368;53.406;6.214;2023-04-24T00:23:42;11.77;;;7.70;;
62338;SDS011;48368;53.406;6.214;2023-04-24T00:26:09;11.35;;;7.90;;
62338;SDS011;48368;53.406;6.214;2023-04-24T00:28:34;10.90;;;7.57;;
62338;SDS011;48368;53.406;6.214;2023-04-24T00:31:00;12.05;;;7.88;;
62338;SDS011;48368;53.406;6.214;2023-04-24T00:33:26;14.50;;;8.25;;
62338;SDS011;48368;53.406;6.214;2023-04-24T00:35:51;12.43;;;7.55;;
62338;SDS011;48368;53.406;6.214;2023-04-24T00:38:17;12.13;;;8.35;;
62338;SDS011;48368;53.406;6.214;2023-04-24T00:40:43;11.50;;;7.60;;
62338;SDS011;48368;53.406;6.214;2023-04-24T00:43:09;11.68;;;8.10;;
62338;SDS011;48368;53.406;6.214;2023-04-24T00:45:36;11.02;;;7.53;;
62338;SDS011;48368;53.406;6.214;2023-04-24T00:48:01;11.50;;;7.50;;
62338;SDS011;48368;53.406;6.214;2023-04-24T00:50:28;12.23;;;9.10;;
62338;SDS011;48368;53.406;6.214;2023-04-24T00:52:54;11.98;;;7.07;;
62338;SDS011;48368;53.406;6.214;2023-04-24T00:55:20;12.45;;;8.45;;
62338;SDS011;48368;53.406;6.214;2023-04-24T00:57:46;11.90;;;7.70;;
62338;SDS011;48368;53.406;6.214;2023-04-24T01:00:12;11.70;;;8.35;;
62338;SDS011;48368;53.406;6.214;2023-04-24T01:02:39;11.85;;;8.43;;
62338;SDS011;48368;53.406;6.214;2023-04-24T01:05:10;11.48;;;8.10;;
62338;SDS011;48368;53.406;6.214;2023-04-24T01:07:37;11.68;;;8.80;;
62338;SDS011;48368;53.406;6.214;2023-04-24T01:10:04;11.70;;;8.30;;
62338;SDS011;48368;53.406;6.214;2023-04-24T01:12:30;12.00;;;7.95;;
62338;SDS011;48368;53.406;6.214;2023-04-24T01:14:57;11.93;;;8.20;;
62338;SDS011;48368;53.406;6.214;2023-04-24T01:17:23;14.63;;;8.60;;
62338;SDS011;48368;53.406;6.214;2023-04-24T01:19:48;16.92;;;8.73;;
62338;SDS011;48368;53.406;6.214;2023-04-24T01:22:15;14.05;;;8.55;;
62338;SDS011;48368;53.406;6.214;2023-04-24T01:24:42;12.85;;;8.82;;
62338;SDS011;48368;53.406;6.214;2023-04-24T01:27:08;13.35;;;9.18;;
62338;SDS011;48368;53.406;6.214;2023-04-24T01:29:35;11.43;;;8.13;;
62338;SDS011;48368;53.406;6.214;2023-04-24T01:32:02;12.93;;;9.52;;
62338;SDS011;48368;53.406;6.214;2023-04-24T01:34:28;12.18;;;8.45;;
62338;SDS011;48368;53.406;6.214;2023-04-24T01:36:55;11.82;;;8.60;;
62338;SDS011;48368;53.406;6.214;2023-04-24T01:39:21;11.35;;;8.85;;
62338;SDS011;48368;53.406;6.214;2023-04-24T01:41:54;11.55;;;8.38;;
62338;SDS011;48368;53.406;6.214;2023-04-24T01:44:20;13.88;;;8.60;;
62338;SDS011;48368;53.406;6.214;2023-04-24T01:46:46;12.02;;;8.43;;
62338;SDS011;48368;53.406;6.214;2023-04-24T01:49:12;12.75;;;8.85;;
62338;SDS011;48368;53.406;6.214;2023-04-24T01:51:38;12.15;;;8.90;;
62338;SDS011;48368;53.406;6.214;2023-04-24T01:54:04;13.75;;;8.82;;
62338;SDS011;48368;53.406;6.214;2023-04-24T01:56:30;12.23;;;8.32;;
62338;SDS011;48368;53.406;6.214;2023-04-24T01:58:58;10.52;;;7.97;;
62338;SDS011;48368;53.406;6.214;2023-04-24T02:01:25;10.88;;;7.85;;
62338;SDS011;48368;53.406;6.214;2023-04-24T02:03:51;9.95;;;6.82;;
62338;SDS011;48368;53.406;6.214;2023-04-24T02:06:16;8.75;;;5.60;;
62338;SDS011;48368;53.406;6.214;2023-04-24T02:08:42;9.68;;;5.80;;
62338;SDS011;48368;53.406;6.214;2023-04-24T02:11:10;8.57;;;5.75;;
62338;SDS011;48368;53.406;6.214;2023-04-24T02:13:36;10.35;;;5.32;;
62338;SDS011;48368;53.406;6.214;2023-04-24T02:16:02;9.82;;;5.68;;
62338;SDS011;48368;53.406;6.214;2023-04-24T02:18:27;7.40;;;4.80;;
62338;SDS011;48368;53.406;6.214;2023-04-24T02:20:53;7.63;;;5.05;;
62338;SDS011;48368;53.406;6.214;2023-04-24T02:23:19;8.15;;;5.18;;
62338;SDS011;48368;53.406;6.214;2023-04-24T02:25:45;9.45;;;5.65;;
62338;SDS011;48368;53.406;6.214;2023-04-24T02:28:11;8.55;;;5.10;;
62338;SDS011;48368;53.406;6.214;2023-04-24T02:30:36;9.25;;;5.93;;
62338;SDS011;48368;53.406;6.214;2023-04-24T02:33:02;10.27;;;5.97;;
62338;SDS011;48368;53.406;6.214;2023-04-24T02:35:28;8.65;;;6.07;;
62338;SDS011;48368;53.406;6.214;2023-04-24T02:37:54;10.25;;;6.60;;
62338;SDS011;48368;53.406;6.214;2023-04-24T02:40:19;11.07;;;6.57;;
62338;SDS011;48368;53.406;6.214;2023-04-24T02:42:45;8.70;;;5.97;;
62338;SDS011;48368;53.406;6.214;2023-04-24T02:45:10;9.82;;;6.07;;
62338;SDS011;48368;53.406;6.214;2023-04-24T02:47:36;12.25;;;6.63;;
62338;SDS011;48368;53.406;6.214;2023-04-24T02:50:02;10.75;;;6.93;;
62338;SDS011;48368;53.406;6.214;2023-04-24T02:52:28;9.30;;;6.60;;
62338;SDS011;48368;53.406;6.214;2023-04-24T02:54:54;10.32;;;6.97;;
62338;SDS011;48368;53.406;6.214;2023-04-24T02:57:19;11.68;;;7.15;;
62338;SDS011;48368;53.406;6.214;2023-04-24T02:59:45;9.98;;;7.00;;
62338;SDS011;48368;53.406;6.214;2023-04-24T03:02:10;9.82;;;6.95;;
62338;SDS011;48368;53.406;6.214;2023-04-24T03:04:36;13.77;;;8.02;;
62338;SDS011;48368;53.406;6.214;2023-04-24T03:07:02;11.85;;;7.30;;
62338;SDS011;48368;53.406;6.214;2023-04-24T03:09:27;11.48;;;7.70;;
62338;SDS011;48368;53.406;6.214;2023-04-24T03:11:53;11.10;;;7.40;;
62338;SDS011;48368;53.406;6.214;2023-04-24T03:14:18;14.63;;;9.13;;
62338;SDS011;48368;53.406;6.214;2023-04-24T03:16:44;13.63;;;8.65;;
62338;SDS011;48368;53.406;6.214;2023-04-24T03:19:10;15.90;;;9.00;;
62338;SDS011;48368;53.406;6.214;2023-04-24T03:21:35;15.43;;;9.95;;
62338;SDS011;48368;53.406;6.214;2023-04-24T03:24:05;16.02;;;10.27;;
62338;SDS011;48368;53.406;6.214;2023-04-24T03:26:34;17.10;;;9.20;;
62338;SDS011;48368;53.406;6.214;2023-04-24T03:29:00;13.93;;;7.18;;
62338;SDS011;48368;53.406;6.214;2023-04-24T03:31:26;11.60;;;5.95;;
62338;SDS011;48368;53.406;6.214;2023-04-24T03:33:52;12.75;;;6.68;;
62338;SDS011;48368;53.406;6.214;2023-04-24T03:36:17;14.82;;;7.13;;
62338;SDS011;48368;53.406;6.214;2023-04-24T03:38:44;13.65;;;6.78;;
62338;SDS011;48368;53.406;6.214;2023-04-24T03:41:10;12.20;;;6.57;;
62338;SDS011;48368;53.406;6.214;2023-04-24T03:43:37;11.48;;;5.25;;
62338;SDS011;48368;53.406;6.214;2023-04-24T03:46:04;10.98;;;4.72;;
62338;SDS011;48368;53.406;6.214;2023-04-24T03:48:30;8.48;;;4.82;;
62338;SDS011;48368;53.406;6.214;2023-04-24T03:50:55;9.25;;;4.82;;
62338;SDS011;48368;53.406;6.214;2023-04-24T03:53:21;11.20;;;5.35;;
62338;SDS011;48368;53.406;6.214;2023-04-24T03:55:47;8.55;;;5.18;;
62338;SDS011;48368;53.406;6.214;2023-04-24T03:58:12;9.20;;;5.25;;
62338;SDS011;48368;53.406;6.214;2023-04-24T04:00:41;9.90;;;4.95;;
62338;SDS011;48368;53.406;6.214;2023-04-24T04:03:06;8.73;;;4.75;;
62338;SDS011;48368;53.406;6.214;2023-04-24T04:05:32;9.60;;;5.30;;
62338;SDS011;48368;53.406;6.214;2023-04-24T04:07:57;8.80;;;4.55;;
62338;SDS011;48368;53.406;6.214;2023-04-24T04:10:23;7.72;;;4.65;;
62338;SDS011;48368;53.406;6.214;2023-04-24T04:12:48;7.78;;;3.95;;
62338;SDS011;48368;53.406;6.214;2023-04-24T04:15:14;7.47;;;3.85;;
62338;SDS011;48368;53.406;6.214;2023-04-24T04:17:40;7.95;;;4.10;;
62338;SDS011;48368;53.406;6.214;2023-04-24T04:20:06;8.43;;;3.95;;
62338;SDS011;48368;53.406;6.214;2023-04-24T04:22:35;5.93;;;2.78;;
62338;SDS011;48368;53.406;6.214;2023-04-24T04:25:01;6.28;;;3.42;;
62338;SDS011;48368;53.406;6.214;2023-04-24T04:27:28;6.22;;;3.13;;
62338;SDS011;48368;53.406;6.214;2023-04-24T04:29:57;6.63;;;3.35;;
62338;SDS011;48368;53.406;6.214;2023-04-24T04:32:30;7.53;;;4.00;;
62338;SDS011;48368;53.406;6.214;2023-04-24T04:34:58;8.95;;;4.90;;
62338;SDS011;48368;53.406;6.214;2023-04-24T04:37:28;10.40;;;4.63;;
62338;SDS011;48368;53.406;6.214;2023-04-24T04:39:54;7.68;;;3.80;;
62338;SDS011;48368;53.406;6.214;2023-04-24T04:42:20;8.05;;;2.67;;
62338;SDS011;48368;53.406;6.214;2023-04-24T04:44:46;4.78;;;2.22;;
62338;SDS011;48368;53.406;6.214;2023-04-24T04:47:11;6.57;;;2.90;;
62338;SDS011;48368;53.406;6.214;2023-04-24T04:49:37;7.47;;;3.60;;
62338;SDS011;48368;53.406;6.214;2023-04-24T04:52:03;7.93;;;3.75;;
62338;SDS011;48368;53.406;6.214;2023-04-24T04:54:30;7.68;;;3.67;;
62338;SDS011;48368;53.406;6.214;2023-04-24T04:56:55;9.52;;;4.88;;
62338;SDS011;48368;53.406;6.214;2023-04-24T04:59:22;7.53;;;3.50;;
62338;SDS011;48368;53.406;6.214;2023-04-24T05:01:48;7.78;;;4.07;;
62338;SDS011;48368;53.406;6.214;2023-04-24T05:04:13;6.38;;;4.03;;
62338;SDS011;48368;53.406;6.214;2023-04-24T05:06:39;8.20;;;3.47;;
62338;SDS011;48368;53.406;6.214;2023-04-24T05:09:05;5.55;;;2.28;;
62338;SDS011;48368;53.406;6.214;2023-04-24T05:11:32;7.15;;;2.90;;
62338;SDS011;48368;53.406;6.214;2023-04-24T05:13:58;4.72;;;1.95;;
62338;SDS011;48368;53.406;6.214;2023-04-24T05:16:23;4.95;;;1.90;;
62338;SDS011;48368;53.406;6.214;2023-04-24T05:18:49;6.55;;;2.08;;
62338;SDS011;48368;53.406;6.214;2023-04-24T05:21:14;6.38;;;2.60;;
62338;SDS011;48368;53.406;6.214;2023-04-24T05:23:47;4.95;;;2.13;;
62338;SDS011;48368;53.406;6.214;2023-04-24T05:26:13;6.40;;;2.35;;
62338;SDS011;48368;53.406;6.214;2023-04-24T05:28:39;4.85;;;2.40;;
62338;SDS011;48368;53.406;6.214;2023-04-24T05:31:05;6.75;;;2.80;;
62338;SDS011;48368;53.406;6.214;2023-04-24T05:33:31;5.30;;;2.38;;
62338;SDS011;48368;53.406;6.214;2023-04-24T05:35:57;6.03;;;2.70;;
62338;SDS011;48368;53.406;6.214;2023-04-24T05:38:22;6.07;;;2.85;;
62338;SDS011;48368;53.406;6.214;2023-04-24T05:40:48;6.43;;;2.88;;
62338;SDS011;48368;53.406;6.214;2023-04-24T05:43:14;7.20;;;2.92;;
62338;SDS011;48368;53.406;6.214;2023-04-24T05:45:39;8.75;;;2.95;;
62338;SDS011;48368;53.406;6.214;2023-04-24T05:48:05;10.45;;;3.47;;
62338;SDS011;48368;53.406;6.214;2023-04-24T05:50:31;6.47;;;3.53;;
62338;SDS011;48368;53.406;6.214;2023-04-24T05:52:56;5.05;;;2.92;;
62338;SDS011;48368;53.406;6.214;2023-04-24T05:55:27;5.18;;;2.85;;
62338;SDS011;48368;53.406;6.214;2023-04-24T05:57:53;6.57;;;2.60;;
62338;SDS011;48368;53.406;6.214;2023-04-24T06:00:19;7.15;;;2.65;;
62338;SDS011;48368;53.406;6.214;2023-04-24T06:02:45;8.23;;;3.13;;
62338;SDS011;48368;53.406;6.214;2023-04-24T06:05:11;4.82;;;2.10;;
62338;SDS011;48368;53.406;6.214;2023-04-24T06:07:37;5.68;;;2.53;;
62338;SDS011;48368;53.406;6.214;2023-04-24T06:10:02;4.78;;;1.80;;
62338;SDS011;48368;53.406;6.214;2023-04-24T06:12:28;5.38;;;3.10;;
62338;SDS011;48368;53.406;6.214;2023-04-24T06:14:54;4.60;;;2.97;;
62338;SDS011;48368;53.406;6.214;2023-04-24T06:17:22;7.53;;;2.38;;
62338;SDS011;48368;53.406;6.214;2023-04-24T06:19:48;7.60;;;2.67;;
62338;SDS011;48368;53.406;6.214;2023-04-24T06:22:20;8.05;;;2.90;;
62338;SDS011;48368;53.406;6.214;2023-04-24T06:24:45;6.85;;;2.67;;
62338;SDS011;48368;53.406;6.214;2023-04-24T06:27:13;5.40;;;2.42;;
62338;SDS011;48368;53.406;6.214;2023-04-24T06:29:39;5.57;;;2.22;;
62338;SDS011;48368;53.406;6.214;2023-04-24T06:32:05;8.55;;;2.47;;
62338;SDS011;48368;53.406;6.214;2023-04-24T06:34:30;7.43;;;2.72;;
62338;SDS011;48368;53.406;6.214;2023-04-24T06:36:57;5.45;;;2.60;;
62338;SDS011;48368;53.406;6.214;2023-04-24T06:39:23;6.82;;;2.45;;
62338;SDS011;48368;53.406;6.214;2023-04-24T06:41:49;10.80;;;2.90;;
62338;SDS011;48368;53.406;6.214;2023-04-24T06:44:15;8.18;;;2.08;;
62338;SDS011;48368;53.406;6.214;2023-04-24T06:46:41;4.50;;;1.83;;
62338;SDS011;48368;53.406;6.214;2023-04-24T06:49:07;4.97;;;1.83;;
62338;SDS011;48368;53.406;6.214;2023-04-24T06:51:32;6.20;;;1.65;;
62338;SDS011;48368;53.406;6.214;2023-04-24T06:53:58;7.68;;;1.70;;
62338;SDS011;48368;53.406;6.214;2023-04-24T06:56:24;6.63;;;1.80;;
62338;SDS011;48368;53.406;6.214;2023-04-24T06:58:51;4.60;;;1.92;;
62338;SDS011;48368;53.406;6.214;2023-04-24T07:01:17;8.43;;;2.78;;
62338;SDS011;48368;53.406;6.214;2023-04-24T07:03:42;7.45;;;2.70;;
62338;SDS011;48368;53.406;6.214;2023-04-24T07:06:08;7.32;;;3.13;;
62338;SDS011;48368;53.406;6.214;2023-04-24T07:08:36;9.00;;;4.90;;
62338;SDS011;48368;53.406;6.214;2023-04-24T07:11:02;10.88;;;5.85;;
62338;SDS011;48368;53.406;6.214;2023-04-24T07:13:27;16.40;;;6.63;;
62338;SDS011;48368;53.406;6.214;2023-04-24T07:15:53;17.20;;;7.78;;
62338;SDS011;48368;53.406;6.214;2023-04-24T07:18:21;15.65;;;7.32;;
62338;SDS011;48368;53.406;6.214;2023-04-24T07:20:47;16.38;;;7.15;;
62338;SDS011;48368;53.406;6.214;2023-04-24T07:23:18;19.70;;;7.88;;
62338;SDS011;48368;53.406;6.214;2023-04-24T07:25:44;19.48;;;9.85;;
62338;SDS011;48368;53.406;6.214;2023-04-24T07:28:12;26.98;;;12.15;;
62338;SDS011;48368;53.406;6.214;2023-04-24T07:30:38;27.63;;;13.63;;
62338;SDS011;48368;53.406;6.214;2023-04-24T07:33:05;22.98;;;10.70;;
62338;SDS011;48368;53.406;6.214;2023-04-24T07:35:31;24.90;;;10.48;;
62338;SDS011;48368;53.406;6.214;2023-04-24T07:37:58;24.45;;;11.65;;
62338;SDS011;48368;53.406;6.214;2023-04-24T07:40:23;27.08;;;10.18;;
62338;SDS011;48368;53.406;6.214;2023-04-24T07:42:49;25.25;;;10.65;;
62338;SDS011;48368;53.406;6.214;2023-04-24T07:45:15;22.27;;;11.18;;
62338;SDS011;48368;53.406;6.214;2023-04-24T07:47:41;29.17;;;13.25;;
62338;SDS011;48368;53.406;6.214;2023-04-24T07:50:09;25.45;;;12.20;;
62338;SDS011;48368;53.406;6.214;2023-04-24T07:52:35;21.45;;;11.73;;
62338;SDS011;48368;53.406;6.214;2023-04-24T07:55:01;23.20;;;11.98;;
62338;SDS011;48368;53.406;6.214;2023-04-24T07:57:27;20.27;;;10.23;;
62338;SDS011;48368;53.406;6.214;2023-04-24T07:59:53;18.40;;;9.15;;
62338;SDS011;48368;53.406;6.214;2023-04-24T08:02:19;15.07;;;8.07;;
62338;SDS011;48368;53.406;6.214;2023-04-24T08:04:46;19.48;;;10.52;;
62338;SDS011;48368;53.406;6.214;2023-04-24T08:07:12;20.75;;;9.60;;
62338;SDS011;48368;53.406;6.214;2023-04-24T08:09:38;23.02;;;10.55;;
62338;SDS011;48368;53.406;6.214;2023-04-24T08:12:03;18.10;;;9.07;;
62338;SDS011;48368;53.406;6.214;2023-04-24T08:14:29;22.83;;;8.32;;
62338;SDS011;48368;53.406;6.214;2023-04-24T08:16:55;19.60;;;9.57;;
62338;SDS011;48368;53.406;6.214;2023-04-24T08:19:21;19.83;;;9.00;;
62338;SDS011;48368;53.406;6.214;2023-04-24T08:21:46;19.55;;;8.90;;
62338;SDS011;48368;53.406;6.214;2023-04-24T08:24:14;19.48;;;7.63;;
62338;SDS011;48368;53.406;6.214;2023-04-24T08:26:40;19.48;;;8.70;;
62338;SDS011;48368;53.406;6.214;2023-04-24T08:29:06;17.58;;;7.72;;
62338;SDS011;48368;53.406;6.214;2023-04-24T08:31:32;21.48;;;9.70;;
62338;SDS011;48368;53.406;6.214;2023-04-24T08:33:57;16.90;;;8.07;;
62338;SDS011;48368;53.406;6.214;2023-04-24T08:36:27;13.18;;;7.25;;
62338;SDS011;48368;53.406;6.214;2023-04-24T08:38:53;12.52;;;6.40;;
62338;SDS011;48368;53.406;6.214;2023-04-24T08:41:19;14.52;;;6.80;;
62338;SDS011;48368;53.406;6.214;2023-04-24T08:43:48;15.25;;;6.78;;
62338;SDS011;48368;53.406;6.214;2023-04-24T08:46:15;14.77;;;6.80;;
62338;SDS011;48368;53.406;6.214;2023-04-24T08:48:41;12.88;;;7.07;;
62338;SDS011;48368;53.406;6.214;2023-04-24T08:51:08;9.10;;;4.85;;
62338;SDS011;48368;53.406;6.214;2023-04-24T08:53:34;20.85;;;5.85;;
62338;SDS011;48368;53.406;6.214;2023-04-24T08:56:01;13.05;;;6.20;;
62338;SDS011;48368;53.406;6.214;2023-04-24T08:58:27;12.02;;;5.97;;
62338;SDS011;48368;53.406;6.214;2023-04-24T09:00:56;12.90;;;7.03;;
62338;SDS011;48368;53.406;6.214;2023-04-24T09:03:23;13.00;;;5.93;;
62338;SDS011;48368;53.406;6.214;2023-04-24T09:05:49;15.13;;;6.55;;
62338;SDS011;48368;53.406;6.214;2023-04-24T09:08:18;17.63;;;5.32;;
62338;SDS011;48368;53.406;6.214;2023-04-24T09:10:44;15.57;;;5.40;;
62338;SDS011;48368;53.406;6.214;2023-04-24T09:13:10;16.77;;;5.65;;
62338;SDS011;48368;53.406;6.214;2023-04-24T09:15:37;11.07;;;4.53;;
62338;SDS011;48368;53.406;6.214;2023-04-24T09:18:04;14.02;;;5.70;;
62338;SDS011;48368;53.406;6.214;2023-04-24T09:20:30;9.60;;;3.72;;
62338;SDS011;48368;53.406;6.214;2023-04-24T09:22:57;9.77;;;3.65;;
62338;SDS011;48368;53.406;6.214;2023-04-24T09:25:25;16.98;;;6.65;;
62338;SDS011;48368;53.406;6.214;2023-04-24T09:28:03;13.70;;;4.68;;
62338;SDS011;48368;53.406;6.214;2023-04-24T09:30:31;13.63;;;5.60;;
62338;SDS011;48368;53.406;6.214;2023-04-24T09:33:10;12.23;;;4.80;;
62338;SDS011;48368;53.406;6.214;2023-04-24T09:35:36;8.82;;;4.60;;
62338;SDS011;48368;53.406;6.214;2023-04-24T09:38:01;10.98;;;4.75;;
62338;SDS011;48368;53.406;6.214;2023-04-24T09:40:27;8.80;;;3.53;;
62338;SDS011;48368;53.406;6.214;2023-04-24T09:42:54;9.02;;;4.13;;
62338;SDS011;48368;53.406;6.214;2023-04-24T09:45:21;7.85;;;3.75;;
62338;SDS011;48368;53.406;6.214;2023-04-24T09:47:52;10.35;;;3.95;;
62338;SDS011;48368;53.406;6.214;2023-04-24T09:50:19;13.63;;;3.95;;
62338;SDS011;48368;53.406;6.214;2023-04-24T09:52:45;15.13;;;4.78;;
62338;SDS011;48368;53.406;6.214;2023-04-24T09:55:20;4.80;;;2.25;;
62338;SDS011;48368;53.406;6.214;2023-04-24T09:57:50;14.55;;;3.40;;
62338;SDS011;48368;53.406;6.214;2023-04-24T10:00:26;9.90;;;4.72;;
62338;SDS011;48368;53.406;6.214;2023-04-24T10:05:32;13.10;;;3.63;;
62338;SDS011;48368;53.406;6.214;2023-04-24T10:10:32;11.55;;;3.40;;
62338;SDS011;48368;53.406;6.214;2023-04-24T10:12:59;11.70;;;3.97;;
62338;SDS011;48368;53.406;6.214;2023-04-24T10:15:26;8.07;;;3.60;;
62338;SDS011;48368;53.406;6.214;2023-04-24T10:17:52;10.75;;;3.58;;
62338;SDS011;48368;53.406;6.214;2023-04-24T10:20:21;13.48;;;3.83;;
62338;SDS011;48368;53.406;6.214;2023-04-24T10:22:49;10.82;;;2.38;;
62338;SDS011;48368;53.406;6.214;2023-04-24T10:25:18;7.82;;;2.53;;
62338;SDS011;48368;53.406;6.214;2023-04-24T10:27:45;13.32;;;3.85;;
62338;SDS011;48368;53.406;6.214;2023-04-24T10:30:12;12.40;;;2.83;;
62338;SDS011;48368;53.406;6.214;2023-04-24T10:32:38;11.90;;;3.28;;
62338;SDS011;48368;53.406;6.214;2023-04-24T10:35:04;11.95;;;3.08;;
62338;SDS011;48368;53.406;6.214;2023-04-24T10:37:40;8.15;;;2.38;;
62338;SDS011;48368;53.406;6.214;2023-04-24T10:40:12;9.52;;;2.92;;
62338;SDS011;48368;53.406;6.214;2023-04-24T10:42:43;13.75;;;2.80;;
62338;SDS011;48368;53.406;6.214;2023-04-24T10:45:16;10.82;;;2.60;;
62338;SDS011;48368;53.406;6.214;2023-04-24T10:47:50;8.05;;;2.22;;
62338;SDS011;48368;53.406;6.214;2023-04-24T10:50:29;9.60;;;3.05;;
62338;SDS011;48368;53.406;6.214;2023-04-24T10:53:07;8.65;;;1.98;;
62338;SDS011;48368;53.406;6.214;2023-04-24T10:55:50;10.43;;;2.28;;
62338;SDS011;48368;53.406;6.214;2023-04-24T10:58:17;9.23;;;2.05;;
62338;SDS011;48368;53.406;6.214;2023-04-24T11:00:55;8.23;;;2.28;;
62338;SDS011;48368;53.406;6.214;2023-04-24T11:03:23;10.95;;;2.75;;
62338;SDS011;48368;53.406;6.214;2023-04-24T11:05:59;9.45;;;2.47;;
62338;SDS011;48368;53.406;6.214;2023-04-24T11:08:44;10.77;;;2.37;;
62338;SDS011;48368;53.406;6.214;2023-04-24T11:11:11;10.27;;;2.63;;
62338;SDS011;48368;53.406;6.214;2023-04-24T11:16:26;12.23;;;3.90;;
62338;SDS011;48368;53.406;6.214;2023-04-24T11:21:47;9.07;;;2.53;;
62338;SDS011;48368;53.406;6.214;2023-04-24T11:27:00;6.97;;;1.90;;
62338;SDS011;48368;53.406;6.214;2023-04-24T11:29:44;10.10;;;2.15;;
62338;SDS011;48368;53.406;6.214;2023-04-24T11:34:41;6.50;;;1.83;;
62338;SDS011;48368;53.406;6.214;2023-04-24T11:37:10;7.43;;;1.77;;
62338;SDS011;48368;53.406;6.214;2023-04-24T11:39:36;7.75;;;1.50;;
62338;SDS011;48368;53.406;6.214;2023-04-24T11:42:02;6.88;;;1.95;;
62338;SDS011;48368;53.406;6.214;2023-04-24T11:44:30;6.80;;;1.30;;
62338;SDS011;48368;53.406;6.214;2023-04-24T11:46:58;12.70;;;1.60;;
62338;SDS011;48368;53.406;6.214;2023-04-24T11:49:23;7.07;;;1.20;;
62338;SDS011;48368;53.406;6.214;2023-04-24T11:51:49;7.68;;;1.83;;
62338;SDS011;48368;53.406;6.214;2023-04-24T11:54:15;7.40;;;2.22;;
62338;SDS011;48368;53.406;6.214;2023-04-24T11:56:44;8.98;;;2.00;;
62338;SDS011;48368;53.406;6.214;2023-04-24T11:59:11;9.05;;;1.70;;
62338;SDS011;48368;53.406;6.214;2023-04-24T12:01:46;7.20;;;1.90;;
62338;SDS011;48368;53.406;6.214;2023-04-24T12:04:13;10.95;;;1.83;;
62338;SDS011;48368;53.406;6.214;2023-04-24T12:06:40;8.05;;;2.05;;
62338;SDS011;48368;53.406;6.214;2023-04-24T12:09:23;7.10;;;1.70;;
62338;SDS011;48368;53.406;6.214;2023-04-24T12:11:54;7.88;;;1.65;;
62338;SDS011;48368;53.406;6.214;2023-04-24T12:14:22;11.73;;;3.95;;
62338;SDS011;48368;53.406;6.214;2023-04-24T12:16:48;8.55;;;2.67;;
62338;SDS011;48368;53.406;6.214;2023-04-24T12:19:21;10.88;;;3.70;;
62338;SDS011;48368;53.406;6.214;2023-04-24T12:22:00;5.32;;;1.90;;
62338;SDS011;48368;53.406;6.214;2023-04-24T12:24:26;6.00;;;1.67;;
62338;SDS011;48368;53.406;6.214;2023-04-24T12:26:51;3.15;;;1.13;;
62338;SDS011;48368;53.406;6.214;2023-04-24T12:29:24;7.28;;;1.40;;
62338;SDS011;48368;53.406;6.214;2023-04-24T12:31:50;9.85;;;2.97;;
62338;SDS011;48368;53.406;6.214;2023-04-24T12:34:17;11.90;;;2.30;;
62338;SDS011;48368;53.406;6.214;2023-04-24T12:36:47;8.18;;;1.40;;
62338;SDS011;48368;53.406;6.214;2023-04-24T12:39:16;10.25;;;1.92;;
62338;SDS011;48368;53.406;6.214;2023-04-24T12:41:55;8.88;;;2.35;;
62338;SDS011;48368;53.406;6.214;2023-04-24T12:44:32;12.68;;;4.75;;
62338;SDS011;48368;53.406;6.214;2023-04-24T12:46:59;34.60;;;18.48;;
62338;SDS011;48368;53.406;6.214;2023-04-24T12:49:26;25.58;;;10.55;;
62338;SDS011;48368;53.406;6.214;2023-04-24T12:51:52;8.10;;;2.50;;
62338;SDS011;48368;53.406;6.214;2023-04-24T12:54:19;9.75;;;4.50;;
62338;SDS011;48368;53.406;6.214;2023-04-24T12:56:44;5.50;;;1.95;;
62338;SDS011;48368;53.406;6.214;2023-04-24T12:59:10;6.85;;;3.40;;
62338;SDS011;48368;53.406;6.214;2023-04-24T13:01:36;10.45;;;2.15;;
62338;SDS011;48368;53.406;6.214;2023-04-24T13:04:01;6.80;;;1.48;;
62338;SDS011;48368;53.406;6.214;2023-04-24T13:06:27;6.53;;;1.13;;
62338;SDS011;48368;53.406;6.214;2023-04-24T13:08:53;8.27;;;1.48;;
62338;SDS011;48368;53.406;6.214;2023-04-24T13:11:20;5.65;;;1.30;;
62338;SDS011;48368;53.406;6.214;2023-04-24T13:13:46;5.88;;;1.10;;
62338;SDS011;48368;53.406;6.214;2023-04-24T13:16:12;3.15;;;1.08;;
62338;SDS011;48368;53.406;6.214;2023-04-24T13:18:38;2.20;;;0.80;;
62338;SDS011;48368;53.406;6.214;2023-04-24T13:21:03;5.20;;;1.17;;
62338;SDS011;48368;53.406;6.214;2023-04-24T13:23:29;4.80;;;1.38;;
62338;SDS011;48368;53.406;6.214;2023-04-24T13:25:56;7.35;;;1.40;;
62338;SDS011;48368;53.406;6.214;2023-04-24T13:28:25;7.40;;;1.42;;
62338;SDS011;48368;53.406;6.214;2023-04-24T13:30:50;7.05;;;2.00;;
62338;SDS011;48368;53.406;6.214;2023-04-24T13:33:16;9.00;;;2.05;;
62338;SDS011;48368;53.406;6.214;2023-04-24T13:35:42;7.88;;;1.25;;
62338;SDS011;48368;53.406;6.214;2023-04-24T13:38:07;5.15;;;1.55;;
62338;SDS011;48368;53.406;6.214;2023-04-24T13:40:33;6.43;;;1.42;;
62338;SDS011;48368;53.406;6.214;2023-04-24T13:42:59;4.07;;;1.70;;
62338;SDS011;48368;53.406;6.214;2023-04-24T13:45:25;9.23;;;2.55;;
62338;SDS011;48368;53.406;6.214;2023-04-24T13:47:51;10.95;;;2.40;;
62338;SDS011;48368;53.406;6.214;2023-04-24T13:50:18;11.43;;;3.33;;
62338;SDS011;48368;53.406;6.214;2023-04-24T13:52:45;11.70;;;2.47;;
62338;SDS011;48368;53.406;6.214;2023-04-24T13:55:10;8.82;;;3.10;;
62338;SDS011;48368;53.406;6.214;2023-04-24T13:57:36;9.88;;;2.35;;
62338;SDS011;48368;53.406;6.214;2023-04-24T14:00:02;10.43;;;2.45;;
62338;SDS011;48368;53.406;6.214;2023-04-24T14:02:29;10.73;;;2.72;;
62338;SDS011;48368;53.406;6.214;2023-04-24T14:04:55;6.50;;;2.00;;
62338;SDS011;48368;53.406;6.214;2023-04-24T14:07:21;11.93;;;4.25;;
62338;SDS011;48368;53.406;6.214;2023-04-24T14:09:46;6.90;;;2.17;;
62338;SDS011;48368;53.406;6.214;2023-04-24T14:12:12;12.60;;;3.67;;
62338;SDS011;48368;53.406;6.214;2023-04-24T14:14:39;13.70;;;3.60;;
62338;SDS011;48368;53.406;6.214;2023-04-24T14:17:04;11.18;;;3.53;;
62338;SDS011;48368;53.406;6.214;2023-04-24T14:19:30;14.85;;;3.28;;
62338;SDS011;48368;53.406;6.214;2023-04-24T14:21:56;14.85;;;4.20;;
62338;SDS011;48368;53.406;6.214;2023-04-24T14:24:24;16.52;;;3.67;;
62338;SDS011;48368;53.406;6.214;2023-04-24T14:26:49;11.10;;;2.88;;
62338;SDS011;48368;53.406;6.214;2023-04-24T14:29:15;13.00;;;2.78;;
62338;SDS011;48368;53.406;6.214;2023-04-24T14:31:42;8.63;;;2.13;;
62338;SDS011;48368;53.406;6.214;2023-04-24T14:34:08;9.38;;;3.00;;
62338;SDS011;48368;53.406;6.214;2023-04-24T14:36:34;12.63;;;3.80;;
62338;SDS011;48368;53.406;6.214;2023-04-24T14:39:00;15.95;;;3.53;;
62338;SDS011;48368;53.406;6.214;2023-04-24T14:41:30;11.82;;;4.40;;
62338;SDS011;48368;53.406;6.214;2023-04-24T14:43:56;18.45;;;4.75;;
62338;SDS011;48368;53.406;6.214;2023-04-24T14:46:22;10.60;;;3.72;;
62338;SDS011;48368;53.406;6.214;2023-04-24T14:48:47;10.45;;;3.75;;
62338;SDS011;48368;53.406;6.214;2023-04-24T14:51:13;10.77;;;3.63;;
62338;SDS011;48368;53.406;6.214;2023-04-24T14:53:38;11.10;;;3.10;;
62338;SDS011;48368;53.406;6.214;2023-04-24T14:56:04;12.07;;;3.58;;